createdAt,value
2023-02-06T00:01:31.472Z,9.90
2023-02-06T00:03:58.882Z,8.07
2023-02-06T00:06:26.406Z,7.10
2023-02-06T00:08:53.913Z,11.23
2023-02-06T00:11:22.038Z,6.13
2023-02-06T00:13:50.027Z,9.88
2023-02-06T00:16:18.467Z,8.95
2023-02-06T00:18:46.415Z,8.05
2023-02-06T00:21:14.250Z,8.07
2023-02-06T00:23:42.161Z,7.90
2023-02-06T00:26:09.807Z,7.55
2023-02-06T00:28:38.090Z,8.43
2023-02-06T00:31:06.901Z,9.57
2023-02-06T00:33:35.320Z,7.75
2023-02-06T00:36:04.021Z,5.63
2023-02-06T00:38:31.894Z,11.05
2023-02-06T00:40:59.585Z,7.65
2023-02-06T00:43:27.128Z,6.90
2023-02-06T00:45:56.754Z,7.90
2023-02-06T00:48:25.142Z,9.27
2023-02-06T00:50:54.078Z,8.20
2023-02-06T00:53:22.217Z,8.38
2023-02-06T00:55:49.792Z,8.43
2023-02-06T00:58:17.377Z,11.77
2023-02-06T01:00:45.156Z,6.90
2023-02-06T01:03:12.967Z,6.72
2023-02-06T01:05:40.374Z,7.95
2023-02-06T01:08:07.833Z,10.23
2023-02-06T01:10:35.351Z,7.53
2023-02-06T01:13:02.871Z,7.88
2023-02-06T01:15:30.373Z,6.68
2023-02-06T01:17:57.789Z,6.18
2023-02-06T01:20:25.365Z,5.10
2023-02-06T01:22:52.796Z,5.82
2023-02-06T01:25:20.420Z,8.15
2023-02-06T01:27:48.447Z,9.65
2023-02-06T01:30:16.132Z,11.73
2023-02-06T01:32:43.756Z,4.90
2023-02-06T01:35:12.364Z,7.57
2023-02-06T01:37:41.415Z,7.57
2023-02-06T01:40:13.937Z,4.43
2023-02-06T01:42:41.729Z,5.82
2023-02-06T01:45:41.255Z,5.38
2023-02-06T01:48:13.419Z,7.68
2023-02-06T01:53:12.960Z,4.35
2023-02-06T01:55:41.915Z,4.82
2023-02-06T01:58:12.166Z,8.43
2023-02-06T02:00:39.921Z,5.00
2023-02-06T02:03:07.542Z,5.28
2023-02-06T02:05:36.482Z,7.15
2023-02-06T02:08:11.316Z,5.72
2023-02-06T02:10:38.929Z,4.03
2023-02-06T02:13:06.435Z,5.95
2023-02-06T02:15:57.722Z,6.53
2023-02-06T02:18:43.486Z,6.47
2023-02-06T02:21:20.142Z,12.75
2023-02-06T02:23:56.602Z,6.38
2023-02-06T02:26:30.091Z,6.32
2023-02-06T02:29:21.614Z,9.25
2023-02-06T02:32:16.979Z,8.33
2023-02-06T02:34:50.234Z,10.10
2023-02-06T02:37:40.728Z,13.88
2023-02-06T02:40:30.417Z,7.45
2023-02-06T02:43:14.933Z,5.13
2023-02-06T02:45:58.050Z,3.55
2023-02-06T02:48:33.109Z,3.78
2023-02-06T02:51:01.783Z,9.13
2023-02-06T02:53:29.463Z,9.50
2023-02-06T02:55:57.161Z,6.82
2023-02-06T02:58:31.681Z,9.07
2023-02-06T03:01:05.589Z,9.27
2023-02-06T03:03:37.668Z,7.60
2023-02-06T03:06:35.424Z,16.23
2023-02-06T03:09:06.198Z,8.40
2023-02-06T03:11:41.526Z,8.90
2023-02-06T03:14:17.123Z,8.15
2023-02-06T03:16:50.665Z,8.23
2023-02-06T03:19:35.927Z,10.35
2023-02-06T03:22:05.249Z,6.00
2023-02-06T03:24:39.173Z,11.95
2023-02-06T03:27:14.116Z,7.18
2023-02-06T03:29:44.702Z,6.90
2023-02-06T03:32:41.343Z,9.60
2023-02-06T03:35:20.604Z,10.82
2023-02-06T03:37:49.155Z,11.27
2023-02-06T03:40:18.414Z,15.40
2023-02-06T03:42:57.070Z,13.27
2023-02-06T03:45:27.048Z,17.85
2023-02-06T03:47:58.984Z,12.95
2023-02-06T03:50:27.368Z,13.50
2023-02-06T03:52:58.015Z,12.63
2023-02-06T03:55:26.022Z,17.00
2023-02-06T03:58:05.655Z,11.73
2023-02-06T04:00:34.801Z,16.02
2023-02-06T04:03:02.630Z,20.17
2023-02-06T04:05:30.539Z,20.13
2023-02-06T04:07:58.114Z,17.75
2023-02-06T04:10:26.514Z,23.77
2023-02-06T04:12:54.236Z,19.20
2023-02-06T04:15:22.014Z,19.42
2023-02-06T04:18:00.160Z,18.17
2023-02-06T04:20:29.766Z,23.45
2023-02-06T04:22:58.441Z,20.70
2023-02-06T04:25:26.557Z,20.90
2023-02-06T04:27:54.045Z,22.02
2023-02-06T04:30:21.701Z,29.23
2023-02-06T04:32:49.615Z,24.33
2023-02-06T04:35:17.677Z,22.08
2023-02-06T04:37:45.298Z,23.65
2023-02-06T04:40:13.296Z,21.83
2023-02-06T04:42:40.958Z,23.48
2023-02-06T04:45:08.937Z,19.73
2023-02-06T04:47:36.497Z,20.55
2023-02-06T04:50:05.099Z,20.48
2023-02-06T04:52:32.906Z,24.77
2023-02-06T04:55:00.376Z,21.98
2023-02-06T04:57:27.949Z,21.83
2023-02-06T04:59:55.410Z,29.15
2023-02-06T05:02:22.903Z,27.75
2023-02-06T05:04:50.339Z,21.13
2023-02-06T05:07:17.876Z,26.90
2023-02-06T05:09:46.204Z,25.13
2023-02-06T05:12:14.383Z,26.70
2023-02-06T05:14:41.917Z,22.30
2023-02-06T05:17:09.299Z,25.58
2023-02-06T05:19:36.846Z,25.40
2023-02-06T05:22:04.320Z,24.48
2023-02-06T05:24:31.983Z,24.80
2023-02-06T05:26:59.458Z,24.67
2023-02-06T05:29:26.984Z,29.27
2023-02-06T05:31:54.519Z,23.98
2023-02-06T05:34:22.037Z,27.60
2023-02-06T05:36:49.496Z,21.48
2023-02-06T05:39:16.961Z,27.60
2023-02-06T05:41:44.433Z,27.23
2023-02-06T05:44:11.893Z,26.05
2023-02-06T05:46:39.529Z,26.33
2023-02-06T05:49:07.139Z,26.65
2023-02-06T05:51:34.636Z,25.85
2023-02-06T05:54:02.512Z,24.83
2023-02-06T05:56:30.138Z,24.05
2023-02-06T05:58:57.652Z,27.60
2023-02-06T06:01:25.903Z,24.35
2023-02-06T06:03:53.432Z,29.23
2023-02-06T06:06:21.161Z,25.20
2023-02-06T06:08:48.714Z,23.27
2023-02-06T06:11:16.234Z,30.13
2023-02-06T06:13:44.012Z,25.10
2023-02-06T06:16:11.655Z,24.85
2023-02-06T06:18:39.155Z,25.60
2023-02-06T06:21:06.806Z,19.60
2023-02-06T06:23:34.361Z,19.92
2023-02-06T06:26:02.049Z,23.02
2023-02-06T06:28:29.534Z,24.83
2023-02-06T06:31:05.080Z,30.52
2023-02-06T06:33:32.873Z,24.35
2023-02-06T06:36:00.524Z,28.35
2023-02-06T06:38:28.109Z,23.30
2023-02-06T06:40:55.652Z,27.27
2023-02-06T06:43:23.293Z,29.85
2023-02-06T06:45:51.187Z,21.80
2023-02-06T06:48:18.788Z,25.30
2023-02-06T06:50:46.206Z,28.20
2023-02-06T06:53:13.726Z,28.15
2023-02-06T06:55:41.201Z,25.13
2023-02-06T06:58:08.717Z,28.95
2023-02-06T07:00:38.189Z,24.10
2023-02-06T07:03:07.198Z,34.17
2023-02-06T07:05:35.765Z,29.13
2023-02-06T07:08:03.444Z,30.42
2023-02-06T07:10:30.909Z,23.98
2023-02-06T07:12:58.410Z,28.00
2023-02-06T07:15:26.104Z,34.10
2023-02-06T07:17:53.699Z,25.98
2023-02-06T07:20:21.230Z,31.25
2023-02-06T07:22:50.325Z,27.02
2023-02-06T07:25:20.322Z,22.73
2023-02-06T07:27:47.971Z,29.60
2023-02-06T07:30:15.527Z,42.42
2023-02-06T07:32:42.986Z,26.02
2023-02-06T07:35:11.033Z,29.20
2023-02-06T07:37:38.527Z,31.17
2023-02-06T07:40:06.470Z,25.60
2023-02-06T07:42:34.128Z,35.10
2023-02-06T07:45:10.443Z,47.20
2023-02-06T07:47:37.925Z,45.20
2023-02-06T07:50:05.735Z,43.60
2023-02-06T07:52:33.228Z,32.63
2023-02-06T07:55:01.158Z,33.53
2023-02-06T07:57:28.762Z,28.63
2023-02-06T07:59:56.232Z,28.17
2023-02-06T08:02:23.796Z,32.38
2023-02-06T08:04:51.418Z,26.50
2023-02-06T08:07:19.169Z,27.40
2023-02-06T08:09:46.958Z,32.65
2023-02-06T08:12:14.478Z,23.92
2023-02-06T08:14:45.806Z,29.05
2023-02-06T08:17:13.717Z,36.00
2023-02-06T08:19:41.170Z,25.52
2023-02-06T08:22:08.662Z,30.48
2023-02-06T08:24:36.236Z,26.55
2023-02-06T08:27:03.689Z,25.98
2023-02-06T08:29:31.446Z,26.45
2023-02-06T08:31:58.874Z,34.92
2023-02-06T08:34:26.618Z,25.10
2023-02-06T08:36:54.070Z,19.77
2023-02-06T08:39:21.486Z,19.15
2023-02-06T08:41:50.013Z,27.55
2023-02-06T08:44:18.250Z,22.02
2023-02-06T08:46:47.918Z,18.23
2023-02-06T08:49:19.012Z,21.70
2023-02-06T08:51:46.957Z,17.98
2023-02-06T08:54:17.769Z,13.23
2023-02-06T08:56:45.567Z,25.48
2023-02-06T08:59:14.783Z,12.85
2023-02-06T09:01:45.528Z,14.43
2023-02-06T09:04:14.405Z,15.05
2023-02-06T09:06:48.920Z,20.88
2023-02-06T09:09:16.545Z,16.75
2023-02-06T09:11:44.373Z,17.85
2023-02-06T09:14:36.679Z,13.73
2023-02-06T09:17:04.195Z,20.77
2023-02-06T09:19:31.709Z,18.00
2023-02-06T09:21:59.207Z,13.88
2023-02-06T09:24:27.456Z,18.55
2023-02-06T09:26:59.934Z,14.27
2023-02-06T09:29:31.674Z,21.50
2023-02-06T09:32:00.093Z,24.57
2023-02-06T09:34:27.934Z,24.20
2023-02-06T09:36:56.815Z,18.95
2023-02-06T09:39:25.193Z,12.73
2023-02-06T09:42:02.865Z,21.58
2023-02-06T09:44:30.433Z,19.23
2023-02-06T09:47:22.832Z,14.43
2023-02-06T09:49:54.992Z,17.30
2023-02-06T09:52:34.863Z,13.60
2023-02-06T09:55:05.160Z,13.77
2023-02-06T09:58:04.962Z,18.20
2023-02-06T10:00:48.955Z,10.90
2023-02-06T10:03:39.689Z,9.55
2023-02-06T10:06:30.523Z,16.15
2023-02-06T10:09:17.412Z,14.05
2023-02-06T10:12:03.684Z,10.93
2023-02-06T10:14:58.494Z,12.02
2023-02-06T10:17:32.636Z,16.23
2023-02-06T10:20:19.842Z,11.63
2023-02-06T10:23:09.824Z,14.50
2023-02-06T10:25:42.462Z,11.35
2023-02-06T10:28:15.772Z,12.63
2023-02-06T10:31:17.281Z,13.88
2023-02-06T10:33:47.795Z,16.42
2023-02-06T10:36:29.578Z,14.25
2023-02-06T10:39:18.429Z,15.23
2023-02-06T10:41:48.844Z,10.43
2023-02-06T10:44:16.448Z,15.00
2023-02-06T10:46:48.377Z,10.15
2023-02-06T10:49:22.295Z,13.75
2023-02-06T10:51:57.172Z,12.68
2023-02-06T10:54:36.704Z,18.38
2023-02-06T10:57:09.645Z,13.85
2023-02-06T10:59:48.107Z,13.15
2023-02-06T11:02:48.996Z,15.60
2023-02-06T11:05:24.789Z,13.55
2023-02-06T11:08:14.661Z,12.18
2023-02-06T11:10:42.471Z,12.93
2023-02-06T11:13:28.719Z,12.88
2023-02-06T11:16:08.521Z,18.40
2023-02-06T11:18:40.263Z,23.95
2023-02-06T11:21:09.627Z,18.38
2023-02-06T11:23:37.061Z,15.60
2023-02-06T11:26:15.272Z,9.57
2023-02-06T11:29:09.094Z,16.08
2023-02-06T11:31:46.333Z,15.32
2023-02-06T11:34:27.735Z,26.42
2023-02-06T11:37:00.505Z,15.77
2023-02-06T11:39:39.263Z,11.00
2023-02-06T11:42:22.329Z,16.33
2023-02-06T11:44:49.862Z,15.98
2023-02-06T11:47:37.928Z,15.30
2023-02-06T11:50:14.939Z,19.65
2023-02-06T11:52:46.886Z,18.30
2023-02-06T11:58:12.793Z,13.43
2023-02-06T12:00:52.253Z,11.65
2023-02-06T12:03:39.061Z,12.60
2023-02-06T12:06:17.489Z,12.80
2023-02-06T12:08:52.587Z,12.63
2023-02-06T12:11:23.053Z,17.17
2023-02-06T12:14:12.095Z,11.63
2023-02-06T12:16:41.959Z,12.05
2023-02-06T12:19:19.722Z,15.18
2023-02-06T12:21:53.882Z,9.52
2023-02-06T12:24:25.459Z,14.00
2023-02-06T12:26:55.459Z,32.17
2023-02-06T12:29:33.090Z,11.82
2023-02-06T12:32:14.881Z,11.38
2023-02-06T12:35:25.182Z,12.35
2023-02-06T12:37:56.914Z,13.90
2023-02-06T12:41:03.408Z,13.07
2023-02-06T12:43:34.631Z,12.40
2023-02-06T12:46:17.456Z,11.27
2023-02-06T12:48:51.293Z,10.13
2023-02-06T12:51:32.559Z,12.48
2023-02-06T12:54:06.158Z,15.80
2023-02-06T12:57:14.522Z,9.38
2023-02-06T13:00:06.730Z,9.82
2023-02-06T13:03:18.410Z,11.75
2023-02-06T13:05:49.355Z,14.30
2023-02-06T13:08:21.080Z,10.65
2023-02-06T13:10:59.789Z,13.23
2023-02-06T13:13:28.901Z,14.60
2023-02-06T13:16:00.478Z,15.55
2023-02-06T13:18:52.571Z,13.65
2023-02-06T13:21:24.709Z,21.77
2023-02-06T13:24:14.735Z,11.93
2023-02-06T13:26:51.546Z,14.00
2023-02-06T13:29:37.673Z,10.93
2023-02-06T13:32:19.972Z,14.82
2023-02-06T13:37:40.056Z,13.15
2023-02-06T13:40:26.771Z,17.23
2023-02-06T13:43:10.120Z,10.07
2023-02-06T13:45:53.041Z,11.55
2023-02-06T13:48:23.693Z,13.77
2023-02-06T13:51:13.214Z,15.75
2023-02-06T13:53:59.200Z,11.27
2023-02-06T13:57:08.906Z,12.85
2023-02-06T13:59:41.034Z,12.55
2023-02-06T14:04:47.152Z,13.90
2023-02-06T14:07:26.815Z,13.90
2023-02-06T14:10:34.810Z,15.95
2023-02-06T14:13:47.739Z,12.93
2023-02-06T14:16:26.612Z,9.77
2023-02-06T14:19:32.404Z,10.43
2023-02-06T14:22:33.824Z,12.02
2023-02-06T14:25:22.764Z,10.68
2023-02-06T14:28:16.233Z,13.57
2023-02-06T14:31:01.920Z,9.00
2023-02-06T14:34:03.752Z,13.27
2023-02-06T14:37:20.483Z,16.33
2023-02-06T14:39:57.810Z,11.43
2023-02-06T14:42:31.129Z,15.30
2023-02-06T14:45:05.860Z,12.82
2023-02-06T14:47:44.208Z,12.55
2023-02-06T14:50:18.432Z,11.27
2023-02-06T14:52:50.497Z,10.43
2023-02-06T14:55:45.929Z,15.00
2023-02-06T14:58:21.068Z,18.85
2023-02-06T15:00:48.786Z,13.80
2023-02-06T15:03:19.224Z,9.77
2023-02-06T15:05:47.097Z,16.40
2023-02-06T15:08:20.628Z,13.13
2023-02-06T15:10:56.287Z,12.18
2023-02-06T15:13:34.751Z,14.45
2023-02-06T15:16:05.942Z,13.90
2023-02-06T15:18:34.837Z,19.00
2023-02-06T15:21:08.245Z,13.27
2023-02-06T15:23:55.442Z,14.75
2023-02-06T15:26:39.602Z,21.30
2023-02-06T15:29:22.012Z,18.02
2023-02-06T15:31:57.421Z,22.73
2023-02-06T15:34:26.090Z,16.23
2023-02-06T15:36:53.967Z,18.65
2023-02-06T15:39:21.817Z,12.77
2023-02-06T15:41:51.517Z,18.42
2023-02-06T15:44:27.488Z,22.75
2023-02-06T15:46:56.417Z,16.52
2023-02-06T15:49:41.500Z,12.90
2023-02-06T15:52:10.897Z,24.67
2023-02-06T15:54:45.092Z,17.02
2023-02-06T15:57:31.560Z,13.90
2023-02-06T15:59:59.997Z,15.80
2023-02-06T16:02:34.231Z,15.88
2023-02-06T16:05:02.687Z,19.42
2023-02-06T16:07:37.987Z,16.25
2023-02-06T16:10:29.976Z,18.10
2023-02-06T16:13:00.174Z,13.68
2023-02-06T16:15:38.534Z,20.33
2023-02-06T16:18:26.410Z,18.10
2023-02-06T16:21:30.171Z,16.15
2023-02-06T16:24:02.552Z,19.67
2023-02-06T16:26:40.385Z,23.30
2023-02-06T16:29:10.649Z,20.10
2023-02-06T16:31:44.391Z,19.85
2023-02-06T16:34:31.526Z,17.20
2023-02-06T16:36:59.098Z,18.10
2023-02-06T16:39:26.532Z,14.38
2023-02-06T16:41:54.365Z,18.80
2023-02-06T16:44:22.049Z,19.58
2023-02-06T16:46:49.471Z,18.52
2023-02-06T16:49:22.057Z,18.95
2023-02-06T16:51:53.588Z,14.55
2023-02-06T16:54:25.905Z,16.10
2023-02-06T16:56:55.651Z,20.55
2023-02-06T16:59:23.347Z,19.10
2023-02-06T17:01:50.721Z,17.02
2023-02-06T17:04:18.193Z,22.35
2023-02-06T17:06:45.841Z,20.50
2023-02-06T17:09:17.374Z,18.98
2023-02-06T17:11:45.260Z,18.98
2023-02-06T17:14:12.804Z,22.02
2023-02-06T17:16:40.322Z,17.15
2023-02-06T17:19:07.826Z,16.08
2023-02-06T17:21:35.436Z,20.02
2023-02-06T17:24:02.876Z,17.55
2023-02-06T17:26:30.461Z,23.10
2023-02-06T17:28:58.059Z,17.45
2023-02-06T17:31:25.935Z,18.40
2023-02-06T17:33:53.551Z,21.20
2023-02-06T17:36:29.367Z,18.88
2023-02-06T17:38:58.976Z,17.67
2023-02-06T17:41:27.493Z,16.92
2023-02-06T17:43:55.032Z,24.55
2023-02-06T17:46:22.552Z,33.50
2023-02-06T17:48:50.101Z,21.35
2023-02-06T17:51:17.776Z,23.70
2023-02-06T17:53:45.312Z,30.90
2023-02-06T17:56:13.719Z,20.08
2023-02-06T17:58:41.874Z,18.35
2023-02-06T18:01:17.756Z,15.98
2023-02-06T18:03:47.937Z,22.92
2023-02-06T18:06:16.030Z,20.75
2023-02-06T18:08:43.738Z,20.98
2023-02-06T18:11:18.058Z,19.08
2023-02-06T18:13:47.610Z,21.48
2023-02-06T18:16:20.759Z,23.30
2023-02-06T18:18:48.848Z,23.90
2023-02-06T18:21:19.716Z,23.98
2023-02-06T18:23:48.464Z,25.20
2023-02-06T18:26:16.446Z,20.00
2023-02-06T18:28:44.663Z,22.88
2023-02-06T18:31:30.159Z,20.10
2023-02-06T18:33:58.957Z,20.92
2023-02-06T18:36:26.894Z,25.70
2023-02-06T18:38:55.137Z,22.25
2023-02-06T18:41:41.195Z,26.23
2023-02-06T18:44:10.419Z,16.80
2023-02-06T18:46:38.378Z,22.17
2023-02-06T18:49:06.312Z,23.80
2023-02-06T18:51:33.999Z,23.73
2023-02-06T18:54:02.159Z,25.83
2023-02-06T18:56:31.035Z,24.35
2023-02-06T18:58:58.682Z,35.20
2023-02-06T19:01:26.603Z,36.85
2023-02-06T19:03:54.554Z,29.65
2023-02-06T19:06:25.692Z,30.08
2023-02-06T19:08:53.101Z,29.80
2023-02-06T19:11:20.502Z,27.42
2023-02-06T19:13:48.447Z,31.55
2023-02-06T19:16:18.132Z,31.45
2023-02-06T19:18:47.973Z,34.33
2023-02-06T19:21:18.232Z,33.38
2023-02-06T19:23:47.705Z,30.83
2023-02-06T19:26:16.654Z,20.48
2023-02-06T19:28:44.860Z,28.17
2023-02-06T19:31:13.516Z,31.27
2023-02-06T19:33:41.996Z,20.63
2023-02-06T19:36:16.630Z,23.10
2023-02-06T19:38:44.483Z,23.17
2023-02-06T19:41:20.759Z,22.33
2023-02-06T19:43:48.642Z,25.70
2023-02-06T19:46:18.709Z,23.20
2023-02-06T19:48:47.648Z,22.90
2023-02-06T19:51:24.453Z,22.70
2023-02-06T19:53:53.665Z,25.88
2023-02-06T19:56:24.144Z,20.98
2023-02-06T19:58:56.159Z,27.55
2023-02-06T20:03:52.471Z,30.05
2023-02-06T20:06:20.079Z,27.58
2023-02-06T20:08:48.079Z,31.85
2023-02-06T20:11:21.087Z,27.65
2023-02-06T20:13:52.070Z,24.23
2023-02-06T20:16:31.633Z,22.80
2023-02-06T20:19:04.916Z,22.92
2023-02-06T20:21:39.304Z,23.65
2023-02-06T20:24:14.768Z,23.40
2023-02-06T20:26:43.506Z,23.65
2023-02-06T20:29:19.777Z,22.73
2023-02-06T20:31:47.846Z,22.10
2023-02-06T20:34:15.907Z,27.27
2023-02-06T20:36:43.632Z,31.25
2023-02-06T20:39:13.087Z,27.73
2023-02-06T20:41:41.295Z,22.58
2023-02-06T20:44:10.996Z,25.67
2023-02-06T20:46:39.595Z,22.35
2023-02-06T20:49:12.754Z,21.70
2023-02-06T20:51:40.305Z,22.98
2023-02-06T20:54:08.121Z,24.40
2023-02-06T20:56:35.604Z,26.13
2023-02-06T20:59:03.318Z,24.17
2023-02-06T21:01:31.357Z,25.83
2023-02-06T21:04:02.852Z,21.55
2023-02-06T21:06:31.045Z,20.33
2023-02-06T21:09:01.721Z,24.67
2023-02-06T21:11:31.399Z,33.03
2023-02-06T21:14:01.441Z,29.45
2023-02-06T21:16:30.687Z,25.10
2023-02-06T21:18:59.999Z,24.30
2023-02-06T21:21:28.127Z,21.52
2023-02-06T21:23:56.281Z,20.52
2023-02-06T21:26:25.109Z,26.70
2023-02-06T21:28:53.812Z,25.13
2023-02-06T21:31:24.361Z,29.95
2023-02-06T21:33:52.657Z,27.27
2023-02-06T21:36:21.235Z,26.52
2023-02-06T21:38:48.915Z,32.80
2023-02-06T21:41:18.833Z,27.35
2023-02-06T21:43:46.640Z,29.15
2023-02-06T21:46:14.226Z,23.00
2023-02-06T21:48:41.830Z,25.13
2023-02-06T21:51:14.248Z,28.58
2023-02-06T21:53:43.370Z,26.38
2023-02-06T21:56:16.335Z,28.35
2023-02-06T21:58:44.227Z,25.88
2023-02-06T22:01:23.433Z,25.40
2023-02-06T22:03:51.282Z,27.52
2023-02-06T22:06:20.090Z,27.35
2023-02-06T22:08:51.957Z,26.60
2023-02-06T22:11:27.060Z,28.27
2023-02-06T22:13:58.844Z,27.70
2023-02-06T22:16:28.727Z,27.75
2023-02-06T22:18:56.705Z,29.38
2023-02-06T22:21:26.650Z,32.05
2023-02-06T22:24:00.687Z,28.13
2023-02-06T22:26:30.577Z,27.10
2023-02-06T22:28:59.132Z,33.78
2023-02-06T22:31:29.976Z,32.95
2023-02-06T22:33:59.504Z,35.92
2023-02-06T22:36:29.755Z,33.67
2023-02-06T22:39:03.838Z,30.13
2023-02-06T22:41:31.403Z,27.50
2023-02-06T22:43:59.134Z,28.17
2023-02-06T22:46:30.021Z,31.02
2023-02-06T22:48:57.609Z,33.30
2023-02-06T22:51:25.850Z,31.40
2023-02-06T22:53:53.605Z,33.53
2023-02-06T22:56:27.167Z,32.58
2023-02-06T22:58:56.324Z,28.83
2023-02-06T23:01:26.299Z,33.53
2023-02-06T23:03:55.319Z,36.75
2023-02-06T23:06:22.850Z,30.52
2023-02-06T23:08:50.407Z,29.10
2023-02-06T23:11:18.244Z,28.73
2023-02-06T23:13:46.379Z,31.83
2023-02-06T23:16:13.941Z,27.15
2023-02-06T23:18:41.747Z,29.25
2023-02-06T23:21:12.027Z,32.08
2023-02-06T23:23:41.576Z,31.83
2023-02-06T23:26:11.771Z,31.65
2023-02-06T23:28:40.621Z,30.95
2023-02-06T23:31:09.762Z,33.78
2023-02-06T23:33:38.345Z,30.35
2023-02-06T23:36:14.559Z,29.67
2023-02-06T23:38:43.544Z,31.90
2023-02-06T23:41:13.508Z,34.28
2023-02-06T23:43:41.518Z,25.73
2023-02-06T23:46:11.978Z,29.70
2023-02-06T23:48:40.127Z,26.20
2023-02-06T23:51:07.999Z,30.48
2023-02-06T23:53:35.685Z,30.33
2023-02-06T23:56:23.823Z,26.58
2023-02-06T23:58:52.804Z,30.17
